Time;durP1;ratioP1;P1;durP2;ratioP2;P2;SDS_P1;SDS_P2;PMS_P1;PMS_P2;Temp;Humidity;BMP_temperature;BMP_pressure;BME280_temperature;BME280_humidity;BME280_pressure;Samples;Min_cycle;Max_cycle;Signal;HPM_P1;HPM_P2
2023/10/22 00:00:26;;;;;;;29.08;11.70;;;;;;;;;;5074457;28;20036;-65
2023/10/22 00:02:53;;;;;;;30.10;11.38;;;;;;;;;;5074643;28;20482;-65
2023/10/22 00:05:21;;;;;;;32.67;11.05;;;;;;;;;;5074110;28;20037;-66
2023/10/22 00:07:48;;;;;;;29.42;11.65;;;;;;;;;;5074004;28;20049;-64
2023/10/22 00:10:16;;;;;;;25.48;10.75;;;;;;;;;;5074514;28;20052;-65
2023/10/22 00:12:44;;;;;;;28.98;10.77;;;;;;;;;;5074640;28;20044;-65
2023/10/22 00:15:11;;;;;;;29.08;11.60;;;;;;;;;;5074246;28;20115;-66
2023/10/22 00:17:41;;;;;;;28.55;10.68;;;;;;;;;;5074557;28;20445;-66
2023/10/22 00:20:09;;;;;;;28.00;11.10;;;;;;;;;;5074358;28;20472;-66
2023/10/22 00:22:37;;;;;;;29.27;10.80;;;;;;;;;;5074440;28;20045;-66
2023/10/22 00:25:05;;;;;;;24.50;10.45;;;;;;;;;;5074110;28;20124;-66
2023/10/22 00:27:33;;;;;;;24.85;9.77;;;;;;;;;;5074462;28;20451;-66
2023/10/22 00:30:01;;;;;;;34.63;9.18;;;;;;;;;;5072022;28;20048;-66
2023/10/22 00:32:29;;;;;;;24.08;8.55;;;;;;;;;;5072191;28;20127;-66
2023/10/22 00:34:56;;;;;;;24.48;7.82;;;;;;;;;;5072775;28;20036;-64
2023/10/22 00:37:24;;;;;;;19.60;7.63;;;;;;;;;;5056162;28;20041;-66
2023/10/22 00:39:52;;;;;;;23.10;8.20;;;;;;;;;;5072304;28;20111;-66
2023/10/22 00:42:20;;;;;;;22.15;8.25;;;;;;;;;;5072462;28;20144;-65
2023/10/22 00:44:48;;;;;;;23.90;8.52;;;;;;;;;;5072839;28;20044;-65
2023/10/22 00:47:16;;;;;;;24.90;9.00;;;;;;;;;;5056226;28;20143;-64
2023/10/22 00:49:44;;;;;;;22.17;9.13;;;;;;;;;;5072561;28;20051;-65
2023/10/22 00:52:15;;;;;;;19.15;8.38;;;;;;;;;;5072251;28;20052;-66
2023/10/22 00:54:43;;;;;;;24.30;8.07;;;;;;;;;;5072217;28;20494;-65
2023/10/22 00:57:11;;;;;;;34.95;8.82;;;;;;;;;;5072212;28;20106;-65
2023/10/22 00:59:39;;;;;;;23.67;8.65;;;;;;;;;;5071936;28;20074;-65
2023/10/22 01:02:06;;;;;;;29.88;8.82;;;;;;;;;;5072199;28;20094;-65
2023/10/22 01:04:36;;;;;;;24.27;8.65;;;;;;;;;;5073302;28;20064;-65
2023/10/22 01:07:05;;;;;;;24.50;9.23;;;;;;;;;;5072079;28;20048;-65
2023/10/22 01:09:34;;;;;;;26.58;8.60;;;;;;;;;;5073465;28;20044;-65
2023/10/22 01:12:03;;;;;;;26.23;8.40;;;;;;;;;;5071893;28;20114;-65
2023/10/22 01:14:31;;;;;;;24.30;7.93;;;;;;;;;;5072130;28;20452;-65
2023/10/22 01:16:59;;;;;;;23.55;7.90;;;;;;;;;;5071777;28;20037;-65
2023/10/22 01:19:27;;;;;;;21.42;8.05;;;;;;;;;;5071863;28;20688;-65
2023/10/22 01:21:54;;;;;;;21.55;7.32;;;;;;;;;;5072987;28;20037;-65
2023/10/22 01:24:22;;;;;;;20.83;7.03;;;;;;;;;;5071820;28;20465;-66
2023/10/22 01:26:49;;;;;;;19.05;6.20;;;;;;;;;;5071742;28;20041;-66
2023/10/22 01:29:17;;;;;;;23.30;6.32;;;;;;;;;;5071546;28;20464;-65
2023/10/22 01:31:46;;;;;;;21.17;6.72;;;;;;;;;;5071467;28;20401;-66
2023/10/22 01:34:14;;;;;;;23.55;6.57;;;;;;;;;;5072015;28;20504;-66
2023/10/22 01:36:41;;;;;;;18.20;5.55;;;;;;;;;;5071553;28;20051;-66
2023/10/22 01:39:13;;;;;;;15.18;5.68;;;;;;;;;;5071619;28;20448;-66
2023/10/22 01:41:41;;;;;;;17.25;6.03;;;;;;;;;;5071438;28;20453;-64
2023/10/22 01:44:08;;;;;;;18.08;5.65;;;;;;;;;;5072793;28;20119;-65
2023/10/22 01:46:36;;;;;;;20.65;5.65;;;;;;;;;;5072540;28;20051;-65
2023/10/22 01:49:04;;;;;;;16.83;5.55;;;;;;;;;;5072615;28;20115;-65
2023/10/22 01:51:31;;;;;;;14.27;5.30;;;;;;;;;;5071352;28;20033;-66
2023/10/22 01:53:58;;;;;;;20.30;6.00;;;;;;;;;;5072498;28;20088;-66
2023/10/22 01:56:26;;;;;;;19.27;5.53;;;;;;;;;;5072263;28;20076;-64
2023/10/22 01:58:55;;;;;;;17.25;5.35;;;;;;;;;;5071461;28;20071;-64
2023/10/22 02:01:22;;;;;;;18.17;5.93;;;;;;;;;;5071324;28;20045;-65
2023/10/22 02:03:50;;;;;;;10.32;5.32;;;;;;;;;;5071243;28;20036;-64
2023/10/22 02:06:18;;;;;;;20.67;5.80;;;;;;;;;;5071268;28;20151;-65
2023/10/22 02:08:46;;;;;;;16.90;5.53;;;;;;;;;;5071304;28;20032;-65
2023/10/22 02:11:14;;;;;;;17.25;6.03;;;;;;;;;;5071314;28;20464;-65
2023/10/22 02:13:42;;;;;;;22.35;6.05;;;;;;;;;;5071128;28;20131;-65
2023/10/22 02:16:09;;;;;;;19.58;5.38;;;;;;;;;;5071022;28;20090;-65
2023/10/22 02:18:37;;;;;;;16.98;5.57;;;;;;;;;;5071063;28;20052;-64
2023/10/22 02:21:04;;;;;;;22.70;6.38;;;;;;;;;;5054350;28;20128;-64
2023/10/22 02:23:32;;;;;;;16.42;5.68;;;;;;;;;;5071033;28;20047;-65
2023/10/22 02:26:00;;;;;;;19.27;6.65;;;;;;;;;;5072259;28;20946;-65
2023/10/22 02:28:28;;;;;;;20.90;6.38;;;;;;;;;;5070968;28;20040;-65
2023/10/22 02:30:55;;;;;;;15.68;5.45;;;;;;;;;;5076174;28;20040;-64
2023/10/22 02:33:23;;;;;;;20.88;6.68;;;;;;;;;;5074921;28;20561;-65
2023/10/22 02:35:51;;;;;;;16.10;6.30;;;;;;;;;;5076252;28;20481;-64
2023/10/22 02:38:19;;;;;;;23.58;7.03;;;;;;;;;;5076269;28;20043;-65
2023/10/22 02:40:48;;;;;;;20.85;7.43;;;;;;;;;;5074792;28;20048;-64
2023/10/22 02:43:16;;;;;;;23.58;7.57;;;;;;;;;;5075998;28;20048;-66
2023/10/22 02:45:50;;;;;;;17.52;6.80;;;;;;;;;;5074977;28;20064;-65
2023/10/22 02:48:18;;;;;;;;;;;;;;;;;;5076148;28;20029;-65
2023/10/22 02:50:46;;;;;;;19.98;7.10;;;;;;;;;;5075870;28;19920;-66
2023/10/22 02:53:14;;;;;;;22.58;7.80;;;;;;;;;;5075783;28;20102;-66
2023/10/22 02:55:42;;;;;;;20.95;7.53;;;;;;;;;;5075781;28;20131;-65
2023/10/22 02:58:10;;;;;;;25.02;8.60;;;;;;;;;;5075723;28;20123;-65
2023/10/22 03:00:37;;;;;;;27.45;9.15;;;;;;;;;;5075661;28;20119;-65
2023/10/22 03:03:05;;;;;;;30.70;9.00;;;;;;;;;;5074313;28;20482;-66
2023/10/22 03:05:33;;;;;;;21.42;8.45;;;;;;;;;;5075418;28;20045;-65
2023/10/22 03:08:03;;;;;;;24.65;8.10;;;;;;;;;;5074317;28;20051;-65
2023/10/22 03:10:32;;;;;;;29.90;9.43;;;;;;;;;;5074565;28;20072;-65
2023/10/22 03:13:01;;;;;;;29.40;8.65;;;;;;;;;;5074165;28;20079;-65
2023/10/22 03:15:29;;;;;;;30.30;9.63;;;;;;;;;;5074069;28;20111;-65
2023/10/22 03:17:59;;;;;;;23.58;8.88;;;;;;;;;;5073875;28;20502;-65
2023/10/22 03:20:28;;;;;;;25.38;8.75;;;;;;;;;;5074121;28;20508;-65
2023/10/22 03:22:55;;;;;;;26.67;9.88;;;;;;;;;;5057708;28;20059;-65
2023/10/22 03:25:23;;;;;;;29.20;10.65;;;;;;;;;;5074059;28;20127;-66
2023/10/22 03:27:50;;;;;;;25.35;9.77;;;;;;;;;;5075379;28;20071;-65
2023/10/22 03:30:18;;;;;;;25.98;9.90;;;;;;;;;;5073879;28;20050;-66
2023/10/22 03:32:46;;;;;;;33.05;9.80;;;;;;;;;;5073582;28;20044;-65
2023/10/22 03:35:16;;;;;;;27.05;9.55;;;;;;;;;;5073862;28;20047;-65
2023/10/22 03:37:44;;;;;;;26.10;9.55;;;;;;;;;;5075160;28;20074;-67
2023/10/22 03:40:12;;;;;;;26.20;9.68;;;;;;;;;;5074295;28;20692;-65
2023/10/22 03:42:39;;;;;;;26.05;8.30;;;;;;;;;;5074690;28;20036;-65
2023/10/22 03:45:07;;;;;;;21.80;7.68;;;;;;;;;;5074617;28;20045;-66
2023/10/22 03:47:34;;;;;;;26.52;9.07;;;;;;;;;;5074922;28;20045;-66
2023/10/22 03:50:02;;;;;;;29.83;8.77;;;;;;;;;;5074662;28;20062;-66
2023/10/22 03:52:30;;;;;;;22.40;8.40;;;;;;;;;;5073670;28;20044;-66
2023/10/22 03:54:59;;;;;;;21.40;7.57;;;;;;;;;;5073112;28;20621;-66
2023/10/22 03:57:27;;;;;;;22.52;9.02;;;;;;;;;;5074612;28;20576;-66
2023/10/22 03:59:54;;;;;;;24.60;8.38;;;;;;;;;;5074532;28;20116;-66
2023/10/22 04:02:23;;;;;;;20.75;7.93;;;;;;;;;;5074772;28;20064;-66
2023/10/22 04:04:50;;;;;;;22.98;8.55;;;;;;;;;;5074374;28;20508;-66
2023/10/22 04:07:18;;;;;;;27.05;8.60;;;;;;;;;;5074473;28;20048;-66
2023/10/22 04:09:45;;;;;;;20.83;8.07;;;;;;;;;;5074585;28;20044;-67
2023/10/22 04:12:14;;;;;;;21.35;7.22;;;;;;;;;;5074655;28;20098;-65
2023/10/22 04:14:42;;;;;;;29.33;8.25;;;;;;;;;;5074320;28;20037;-64
2023/10/22 04:17:10;;;;;;;26.27;7.75;;;;;;;;;;5074210;28;20064;-64
2023/10/22 04:19:37;;;;;;;36.38;8.27;;;;;;;;;;5074097;28;20159;-65
2023/10/22 04:22:04;;;;;;;29.33;8.45;;;;;;;;;;5072946;28;20131;-65
2023/10/22 04:24:32;;;;;;;28.95;8.50;;;;;;;;;;5074099;28;20036;-65
2023/10/22 04:26:59;;;;;;;27.88;8.65;;;;;;;;;;5074202;28;20037;-65
2023/10/22 04:29:27;;;;;;;29.30;8.35;;;;;;;;;;5073951;28;20094;-65
2023/10/22 04:31:55;;;;;;;25.38;7.97;;;;;;;;;;5073857;28;20485;-65
2023/10/22 04:34:22;;;;;;;26.23;8.25;;;;;;;;;;5073839;28;20066;-65
2023/10/22 04:36:49;;;;;;;27.40;8.35;;;;;;;;;;5073885;28;20043;-65
2023/10/22 04:39:17;;;;;;;25.95;8.05;;;;;;;;;;5073915;28;20072;-65
2023/10/22 04:41:45;;;;;;;19.92;7.70;;;;;;;;;;5073624;28;20036;-65
2023/10/22 04:44:12;;;;;;;21.58;8.45;;;;;;;;;;5073769;28;20043;-65
2023/10/22 04:46:40;;;;;;;27.65;8.52;;;;;;;;;;5073739;28;20045;-64
2023/10/22 04:49:07;;;;;;;25.13;9.07;;;;;;;;;;5073656;28;20112;-65
2023/10/22 04:51:37;;;;;;;23.70;8.10;;;;;;;;;;5073167;28;20082;-65
2023/10/22 04:54:05;;;;;;;29.20;10.93;;;;;;;;;;5073208;28;20078;-66
2023/10/22 04:56:33;;;;;;;32.83;13.63;;;;;;;;;;5073590;28;20060;-65
2023/10/22 04:59:00;;;;;;;26.50;10.98;;;;;;;;;;5073348;28;20036;-65
2023/10/22 05:01:28;;;;;;;22.35;7.30;;;;;;;;;;5076132;28;20044;-65
2023/10/22 05:03:58;;;;;;;29.73;8.57;;;;;;;;;;5073481;28;20496;-65
2023/10/22 05:06:26;;;;;;;23.20;8.48;;;;;;;;;;5081531;28;20087;-65
2023/10/22 05:08:54;;;;;;;27.08;8.13;;;;;;;;;;5092513;28;20465;-66
2023/10/22 05:11:21;;;;;;;22.40;7.50;;;;;;;;;;5092344;28;20071;-66
2023/10/22 05:13:49;;;;;;;22.23;7.00;;;;;;;;;;5093650;28;20398;-66
2023/10/22 05:16:16;;;;;;;21.80;6.65;;;;;;;;;;5090939;28;20036;-65
2023/10/22 05:18:44;;;;;;;22.15;6.43;;;;;;;;;;5074459;28;20071;-66
2023/10/22 05:21:11;;;;;;;28.80;6.15;;;;;;;;;;5073084;28;20042;-66
2023/10/22 05:23:39;;;;;;;21.73;6.65;;;;;;;;;;5073140;28;20052;-66
2023/10/22 05:26:14;;;;;;;19.67;6.45;;;;;;;;;;5072144;28;20036;-66
2023/10/22 05:28:42;;;;;;;27.77;8.60;;;;;;;;;;5072901;28;20043;-66
2023/10/22 05:31:20;;;;;;;24.15;7.95;;;;;;;;;;5073060;28;20036;-66
2023/10/22 05:33:47;;;;;;;25.45;7.97;;;;;;;;;;5072889;28;20040;-67
2023/10/22 05:36:19;;;;;;;32.22;8.13;;;;;;;;;;5073102;28;20106;-66
2023/10/22 05:38:47;;;;;;;29.35;9.43;;;;;;;;;;5072879;28;20062;-66
2023/10/22 05:41:21;;;;;;;31.48;9.90;;;;;;;;;;5071205;28;20028;-65
2023/10/22 05:43:49;;;;;;;28.80;9.65;;;;;;;;;;5072786;28;20072;-64
2023/10/22 05:46:17;;;;;;;35.20;9.70;;;;;;;;;;5072395;28;20040;-66
2023/10/22 05:48:44;;;;;;;30.73;9.00;;;;;;;;;;5072722;28;20037;-65
2023/10/22 05:51:12;;;;;;;34.65;9.32;;;;;;;;;;5071401;28;20045;-65
2023/10/22 05:53:39;;;;;;;34.88;9.27;;;;;;;;;;5072136;28;20148;-65
2023/10/22 05:56:07;;;;;;;29.40;8.98;;;;;;;;;;5066590;28;20032;-66
2023/10/22 05:58:35;;;;;;;51.08;23.30;;;;;;;;;;5064755;28;20052;-65
2023/10/22 06:01:03;;;;;;;62.20;26.40;;;;;;;;;;5064252;28;20033;-66
2023/10/22 06:03:30;;;;;;;60.17;13.88;;;;;;;;;;5050841;28;20086;-65
2023/10/22 06:05:58;;;;;;;57.47;24.13;;;;;;;;;;5065107;28;20032;-66
2023/10/22 06:08:26;;;;;;;48.05;17.13;;;;;;;;;;5065398;28;20044;-65
2023/10/22 06:10:54;;;;;;;61.55;23.13;;;;;;;;;;5061863;28;20132;-65
2023/10/22 06:13:22;;;;;;;57.20;26.33;;;;;;;;;;5056434;28;20117;-66
2023/10/22 06:15:49;;;;;;;62.42;31.00;;;;;;;;;;5065498;28;20041;-65
2023/10/22 06:18:17;;;;;;;72.45;36.35;;;;;;;;;;5047977;28;20048;-65
2023/10/22 06:20:45;;;;;;;81.68;39.28;;;;;;;;;;5049164;28;20045;-65
2023/10/22 06:23:13;;;;;;;67.88;37.60;;;;;;;;;;5061116;28;20550;-66
2023/10/22 06:25:44;;;;;;;65.35;31.83;;;;;;;;;;5053435;28;20128;-66
2023/10/22 06:28:12;;;;;;;62.03;31.33;;;;;;;;;;5075698;28;20043;-67
2023/10/22 06:30:40;;;;;;;51.20;26.13;;;;;;;;;;5045886;28;20041;-66
2023/10/22 06:33:08;;;;;;;54.42;23.63;;;;;;;;;;5063771;28;20068;-66
2023/10/22 06:35:36;;;;;;;42.72;19.42;;;;;;;;;;5066222;28;20135;-66
2023/10/22 06:38:04;;;;;;;47.80;21.33;;;;;;;;;;5063854;28;20483;-65
2023/10/22 06:40:35;;;;;;;49.35;20.98;;;;;;;;;;5064417;28;20032;-65
2023/10/22 06:43:04;;;;;;;52.13;20.70;;;;;;;;;;5063985;28;20072;-65
2023/10/22 06:45:32;;;;;;;43.13;20.73;;;;;;;;;;5064928;28;20044;-65
2023/10/22 06:47:59;;;;;;;50.67;21.40;;;;;;;;;;5063713;28;20595;-65
2023/10/22 06:50:30;;;;;;;54.85;21.58;;;;;;;;;;5065509;28;20043;-67
2023/10/22 06:53:00;;;;;;;48.78;21.73;;;;;;;;;;5063737;28;20079;-66
2023/10/22 06:55:27;;;;;;;51.83;21.52;;;;;;;;;;5065304;28;20053;-64
2023/10/22 06:57:55;;;;;;;46.40;22.25;;;;;;;;;;5052376;28;20044;-64
2023/10/22 07:00:23;;;;;;;48.75;21.23;;;;;;;;;;5063600;28;20045;-65
2023/10/22 07:02:50;;;;;;;44.97;21.30;;;;;;;;;;5067125;28;20037;-65
2023/10/22 07:05:18;;;;;;;48.72;20.40;;;;;;;;;;5066953;28;20048;-65
2023/10/22 07:07:45;;;;;;;44.17;19.95;;;;;;;;;;5066426;28;20044;-65
2023/10/22 07:10:13;;;;;;;47.85;19.23;;;;;;;;;;5066322;28;20094;-65
2023/10/22 07:12:40;;;;;;;42.85;16.58;;;;;;;;;;5065865;28;20474;-65
2023/10/22 07:15:10;;;;;;;37.90;14.70;;;;;;;;;;5068392;28;20105;-65
2023/10/22 07:17:38;;;;;;;34.90;13.98;;;;;;;;;;5074528;28;20037;-65
2023/10/22 07:20:06;;;;;;;36.28;14.23;;;;;;;;;;5074173;28;20134;-65
2023/10/22 07:22:34;;;;;;;24.50;11.60;;;;;;;;;;5074380;28;20087;-66
2023/10/22 07:25:02;;;;;;;28.45;10.77;;;;;;;;;;5075451;28;20036;-66
2023/10/22 07:27:29;;;;;;;27.38;10.70;;;;;;;;;;5075343;28;20045;-65
2023/10/22 07:29:57;;;;;;;25.98;10.10;;;;;;;;;;5075486;28;20047;-65
2023/10/22 07:32:24;;;;;;;27.58;10.93;;;;;;;;;;5074542;28;20092;-65
2023/10/22 07:34:52;;;;;;;33.55;11.48;;;;;;;;;;5073879;28;20080;-66
2023/10/22 07:37:19;;;;;;;30.17;11.88;;;;;;;;;;5075457;28;20048;-66
2023/10/22 07:39:47;;;;;;;30.33;11.73;;;;;;;;;;5075117;28;20032;-65
2023/10/22 07:42:14;;;;;;;28.55;15.02;;;;;;;;;;5075221;28;20486;-64
2023/10/22 07:44:43;;;;;;;34.63;14.68;;;;;;;;;;5074958;28;20090;-66
2023/10/22 07:47:11;;;;;;;36.83;15.00;;;;;;;;;;5074943;28;20045;-67
2023/10/22 07:49:39;;;;;;;31.65;13.80;;;;;;;;;;5074983;28;20143;-65
2023/10/22 07:52:06;;;;;;;31.08;13.73;;;;;;;;;;5074902;28;20120;-65
2023/10/22 07:54:34;;;;;;;29.98;12.15;;;;;;;;;;5073688;28;20041;-65
2023/10/22 07:57:01;;;;;;;27.63;9.73;;;;;;;;;;5075049;28;20041;-66
2023/10/22 07:59:29;;;;;;;24.23;10.50;;;;;;;;;;5074879;28;20040;-67
2023/10/22 08:01:56;;;;;;;39.58;21.48;;;;;;;;;;5074664;28;20043;-67
2023/10/22 08:04:24;;;;;;;55.35;27.45;;;;;;;;;;5074672;28;20502;-67
2023/10/22 08:06:52;;;;;;;78.53;50.78;;;;;;;;;;5073326;28;20155;-67
2023/10/22 08:09:19;;;;;;;65.38;42.53;;;;;;;;;;5073629;28;20429;-67
2023/10/22 08:11:47;;;;;;;46.08;28.63;;;;;;;;;;5074864;28;20040;-66
2023/10/22 08:14:15;;;;;;;51.28;36.47;;;;;;;;;;5074527;28;20493;-66
2023/10/22 08:16:43;;;;;;;19.58;13.93;;;;;;;;;;5074514;28;20367;-65
2023/10/22 08:19:10;;;;;;;28.25;15.32;;;;;;;;;;5074207;28;20046;-66
2023/10/22 08:21:38;;;;;;;15.93;7.65;;;;;;;;;;5067887;28;20504;-66
2023/10/22 08:24:06;;;;;;;12.93;5.40;;;;;;;;;;5053255;28;20403;-66
2023/10/22 08:26:33;;;;;;;17.63;9.27;;;;;;;;;;5065127;28;20040;-65
2023/10/22 08:29:01;;;;;;;17.30;9.00;;;;;;;;;;5060324;28;20465;-65
2023/10/22 08:31:29;;;;;;;52.92;33.35;;;;;;;;;;5058166;28;20127;-66
2023/10/22 08:33:56;;;;;;;14.90;6.40;;;;;;;;;;5051264;28;20056;-66
2023/10/22 08:36:24;;;;;;;11.80;5.38;;;;;;;;;;5050760;28;20037;-66
2023/10/22 08:38:51;;;;;;;16.88;6.70;;;;;;;;;;5064230;28;20143;-66
2023/10/22 08:41:23;;;;;;;17.63;8.95;;;;;;;;;;5067781;28;20044;-66
2023/10/22 08:43:51;;;;;;;43.83;28.15;;;;;;;;;;5052763;28;20132;-66
2023/10/22 08:46:18;;;;;;;46.40;33.92;;;;;;;;;;5052007;28;20233;-66
2023/10/22 08:48:46;;;;;;;14.02;8.60;;;;;;;;;;5057417;28;20402;-67
2023/10/22 08:51:14;;;;;;;17.55;9.60;;;;;;;;;;5058810;28;20087;-67
2023/10/22 08:53:41;;;;;;;23.67;15.57;;;;;;;;;;5052909;28;20056;-68
2023/10/22 08:56:09;;;;;;;23.80;12.27;;;;;;;;;;5061255;28;20047;-66
2023/10/22 08:58:37;;;;;;;9.38;4.15;;;;;;;;;;5063344;28;20131;-66
2023/10/22 09:01:04;;;;;;;13.00;4.43;;;;;;;;;;5064563;28;20040;-67
2023/10/22 09:03:32;;;;;;;13.05;4.85;;;;;;;;;;5064075;28;20592;-67
2023/10/22 09:06:01;;;;;;;16.83;6.65;;;;;;;;;;5054771;28;20465;-67
2023/10/22 09:08:42;;;;;;;12.77;6.32;;;;;;;;;;5049149;28;20036;-66
2023/10/22 09:11:14;;;;;;;18.50;7.30;;;;;;;;;;5050672;28;20049;-67
2023/10/22 09:13:42;;;;;;;19.88;12.32;;;;;;;;;;5051627;28;20544;-66
2023/10/22 09:16:10;;;;;;;15.80;7.40;;;;;;;;;;5055012;28;20398;-67
2023/10/22 09:18:44;;;;;;;13.80;6.75;;;;;;;;;;5053773;28;20047;-65
2023/10/22 09:21:12;;;;;;;;;;;;;;;;;;5060264;28;20044;-66
2023/10/22 09:23:41;;;;;;;18.35;10.15;;;;;;;;;;5062890;28;19920;-65
2023/10/22 09:26:10;;;;;;;93.88;65.25;;;;;;;;;;5061489;28;20047;-66
2023/10/22 09:28:47;;;;;;;14.05;6.45;;;;;;;;;;5066774;28;20491;-65
2023/10/22 09:31:15;;;;;;;47.80;30.77;;;;;;;;;;5066516;28;20094;-65
2023/10/22 09:33:42;;;;;;;11.73;5.30;;;;;;;;;;5066857;28;20036;-66
2023/10/22 09:36:11;;;;;;;15.77;5.75;;;;;;;;;;5059091;28;20044;-66
2023/10/22 09:38:47;;;;;;;12.18;5.25;;;;;;;;;;5058614;28;20052;-66
2023/10/22 09:41:30;;;;;;;17.52;6.57;;;;;;;;;;5059201;28;20037;-67
2023/10/22 09:43:59;;;;;;;15.40;6.00;;;;;;;;;;5054744;28;20047;-66
2023/10/22 09:46:33;;;;;;;14.15;6.28;;;;;;;;;;5062841;28;20045;-66
2023/10/22 09:49:01;;;;;;;12.82;6.53;;;;;;;;;;5067137;28;20090;-67
2023/10/22 09:51:32;;;;;;;16.33;6.60;;;;;;;;;;5067643;28;20044;-66
2023/10/22 09:54:03;;;;;;;16.73;6.30;;;;;;;;;;5067058;28;20058;-67
2023/10/22 09:56:32;;;;;;;18.50;8.93;;;;;;;;;;5067279;28;20041;-67
2023/10/22 09:59:04;;;;;;;19.55;7.97;;;;;;;;;;5067030;28;20487;-67
2023/10/22 10:01:32;;;;;;;12.93;6.00;;;;;;;;;;5067516;28;20059;-67
2023/10/22 10:04:02;;;;;;;16.23;8.77;;;;;;;;;;5067424;28;20047;-67
2023/10/22 10:06:30;;;;;;;13.20;6.30;;;;;;;;;;5067072;28;20048;-66
2023/10/22 10:09:02;;;;;;;11.45;6.18;;;;;;;;;;5066955;28;20074;-66
2023/10/22 10:11:31;;;;;;;14.57;8.60;;;;;;;;;;5067475;28;20139;-65
2023/10/22 10:14:24;;;;;;;11.98;5.05;;;;;;;;;;5066980;28;20044;-65
2023/10/22 10:17:00;;;;;;;15.15;4.85;;;;;;;;;;5056596;28;20127;-66
2023/10/22 10:19:29;;;;;;;13.73;5.95;;;;;;;;;;5067188;28;20036;-66
2023/10/22 10:21:56;;;;;;;11.45;5.72;;;;;;;;;;5065485;28;20076;-66
2023/10/22 10:24:25;;;;;;;11.43;4.55;;;;;;;;;;5067076;28;20049;-65
2023/10/22 10:26:56;;;;;;;10.68;5.78;;;;;;;;;;5067167;28;20113;-65
2023/10/22 10:29:23;;;;;;;12.27;5.90;;;;;;;;;;5066894;28;20052;-65
2023/10/22 10:31:52;;;;;;;10.20;5.55;;;;;;;;;;5065816;28;20032;-78
2023/10/22 10:34:25;;;;;;;18.95;7.90;;;;;;;;;;5058752;28;20029;-68
2023/10/22 10:36:56;;;;;;;15.37;7.00;;;;;;;;;;5062847;28;20068;-69
2023/10/22 10:39:47;;;;;;;12.73;5.05;;;;;;;;;;5062970;28;20286;-67
2023/10/22 10:42:36;;;;;;;13.57;5.40;;;;;;;;;;5043870;28;20076;-67
2023/10/22 10:45:05;;;;;;;15.13;7.78;;;;;;;;;;5058647;28;20072;-68
2023/10/22 10:47:33;;;;;;;20.50;8.13;;;;;;;;;;5065407;28;20131;-68
2023/10/22 10:50:07;;;;;;;14.95;5.38;;;;;;;;;;5067242;28;20044;-69
2023/10/22 10:52:34;;;;;;;11.20;4.65;;;;;;;;;;5070957;28;20045;-69
2023/10/22 10:55:07;;;;;;;13.55;6.80;;;;;;;;;;5070295;28;20049;-69
2023/10/22 10:57:35;;;;;;;16.13;5.88;;;;;;;;;;5069012;28;20095;-69
2023/10/22 11:00:09;;;;;;;19.58;6.35;;;;;;;;;;5069132;28;20059;-68
2023/10/22 11:02:37;;;;;;;;;;;;;;;;;;5070994;28;20491;-68
2023/10/22 11:05:04;;;;;;;14.20;5.10;;;;;;;;;;5086113;28;19928;-69
2023/10/22 11:07:32;;;;;;;11.38;5.00;;;;;;;;;;5069030;28;20037;-68
2023/10/22 11:09:59;;;;;;;11.88;5.53;;;;;;;;;;5070013;28;20064;-68
2023/10/22 11:12:28;;;;;;;14.63;6.63;;;;;;;;;;5070350;28;20062;-68
2023/10/22 11:14:56;;;;;;;14.23;5.63;;;;;;;;;;5070527;28;20045;-69
2023/10/22 11:17:25;;;;;;;14.68;6.07;;;;;;;;;;5068818;28;20047;-68
2023/10/22 11:19:52;;;;;;;13.55;4.75;;;;;;;;;;5069928;28;20053;-69
2023/10/22 11:22:20;;;;;;;15.15;4.57;;;;;;;;;;5068196;28;20048;-68
2023/10/22 11:24:48;;;;;;;101.55;90.68;;;;;;;;;;5070011;28;20045;-68
2023/10/22 11:27:16;;;;;;;25.48;13.68;;;;;;;;;;5070291;28;20403;-68
2023/10/22 11:29:47;;;;;;;17.95;9.75;;;;;;;;;;5069781;28;20059;-67
2023/10/22 11:32:16;;;;;;;20.40;10.68;;;;;;;;;;5069971;28;20072;-68
2023/10/22 11:34:54;;;;;;;15.13;7.18;;;;;;;;;;5069479;28;20135;-67
2023/10/22 11:37:41;;;;;;;18.65;7.70;;;;;;;;;;5067877;28;20044;-69
2023/10/22 11:40:09;;;;;;;;;;;;;;;;;;5068818;28;20047;-67
2023/10/22 11:42:36;;;;;;;15.50;6.22;;;;;;;;;;5068512;28;20377;-67
2023/10/22 11:45:06;;;;;;;23.98;14.43;;;;;;;;;;5062524;28;20048;-68
2023/10/22 11:47:34;;;;;;;22.05;10.10;;;;;;;;;;5062798;28;20518;-68
2023/10/22 11:50:02;;;;;;;18.80;6.50;;;;;;;;;;5063860;28;20079;-68
2023/10/22 11:52:40;;;;;;;41.72;16.30;;;;;;;;;;5068015;28;20036;-69
2023/10/22 11:55:12;;;;;;;19.25;6.75;;;;;;;;;;5071858;28;20107;-70
2023/10/22 11:57:59;;;;;;;11.07;4.90;;;;;;;;;;5053247;28;20045;-69
2023/10/22 12:00:26;;;;;;;13.57;4.22;;;;;;;;;;5051969;28;20052;-68
2023/10/22 12:02:56;;;;;;;16.08;9.93;;;;;;;;;;5062491;28;20075;-69
2023/10/22 12:05:24;;;;;;;17.48;7.82;;;;;;;;;;5059068;28;20055;-67
2023/10/22 12:07:51;;;;;;;19.98;7.18;;;;;;;;;;5063825;28;20036;-70
2023/10/22 12:10:19;;;;;;;11.60;4.47;;;;;;;;;;5061534;28;20072;-68
2023/10/22 12:12:46;;;;;;;9.50;3.95;;;;;;;;;;5065626;28;20040;-69
2023/10/22 12:15:14;;;;;;;13.13;4.60;;;;;;;;;;5061453;28;20052;-69
2023/10/22 12:17:42;;;;;;;10.52;5.25;;;;;;;;;;5065300;28;20044;-67
2023/10/22 12:20:10;;;;;;;18.75;6.03;;;;;;;;;;5061769;28;20049;-67
2023/10/22 12:22:37;;;;;;;12.55;4.80;;;;;;;;;;5054808;28;20043;-67
2023/10/22 12:25:05;;;;;;;11.10;3.65;;;;;;;;;;5063279;28;20143;-69
2023/10/22 12:27:32;;;;;;;9.95;3.90;;;;;;;;;;5064115;28;20044;-69
2023/10/22 12:30:01;;;;;;;14.05;5.25;;;;;;;;;;5066634;28;20039;-70
2023/10/22 12:32:28;;;;;;;12.25;4.38;;;;;;;;;;5067203;28;20040;-67
2023/10/22 12:34:56;;;;;;;17.65;5.80;;;;;;;;;;5068115;28;20051;-69
2023/10/22 12:37:23;;;;;;;18.05;5.82;;;;;;;;;;5067480;28;20044;-67
2023/10/22 12:39:51;;;;;;;15.35;4.60;;;;;;;;;;5065985;28;20453;-69
2023/10/22 12:42:18;;;;;;;9.00;4.05;;;;;;;;;;5052485;28;20041;-68
2023/10/22 12:44:46;;;;;;;13.18;4.65;;;;;;;;;;5055365;28;20047;-69
2023/10/22 12:47:14;;;;;;;13.70;5.10;;;;;;;;;;5062957;28;20044;-68
2023/10/22 12:49:45;;;;;;;21.27;4.93;;;;;;;;;;5068165;28;20082;-68
2023/10/22 12:52:13;;;;;;;11.35;4.35;;;;;;;;;;5068142;28;20071;-68
2023/10/22 12:54:44;;;;;;;9.88;4.40;;;;;;;;;;5067969;28;20147;-68
2023/10/22 12:57:12;;;;;;;9.50;4.63;;;;;;;;;;5067868;28;20049;-69
2023/10/22 12:59:41;;;;;;;10.48;4.20;;;;;;;;;;5067723;28;20060;-68
2023/10/22 13:02:09;;;;;;;14.30;3.95;;;;;;;;;;5067513;28;20044;-70
2023/10/22 13:04:37;;;;;;;13.05;4.60;;;;;;;;;;5066817;28;20048;-72
2023/10/22 13:07:06;;;;;;;36.35;24.48;;;;;;;;;;5066694;28;20048;-68
2023/10/22 13:09:34;;;;;;;20.92;12.38;;;;;;;;;;5082489;28;20052;-67
2023/10/22 13:12:01;;;;;;;24.67;15.70;;;;;;;;;;5067321;28;20097;-67
2023/10/22 13:14:29;;;;;;;15.90;7.80;;;;;;;;;;5067505;28;20178;-73
2023/10/22 13:16:57;;;;;;;16.08;8.45;;;;;;;;;;5065050;28;20101;-70
2023/10/22 13:19:24;;;;;;;13.85;7.18;;;;;;;;;;5053403;28;20470;-68
2023/10/22 13:21:52;;;;;;;22.50;9.75;;;;;;;;;;5049387;28;20510;-69
2023/10/22 13:24:20;;;;;;;16.20;6.45;;;;;;;;;;5063721;28;20573;-69
2023/10/22 13:26:48;;;;;;;17.60;6.35;;;;;;;;;;5066387;28;20041;-70
2023/10/22 13:29:17;;;;;;;14.30;6.40;;;;;;;;;;5066942;28;20114;-70
2023/10/22 13:31:47;;;;;;;15.35;5.57;;;;;;;;;;5065645;28;20051;-68
2023/10/22 13:34:15;;;;;;;16.40;5.95;;;;;;;;;;5066370;28;20111;-70
2023/10/22 13:36:42;;;;;;;27.55;13.73;;;;;;;;;;5066748;28;20045;-70
2023/10/22 13:39:12;;;;;;;18.75;5.45;;;;;;;;;;5066866;28;20059;-70
2023/10/22 13:41:43;;;;;;;14.27;5.93;;;;;;;;;;5065968;28;20040;-67
2023/10/22 13:44:11;;;;;;;16.90;6.10;;;;;;;;;;5059802;28;20136;-67
2023/10/22 13:46:38;;;;;;;25.40;9.93;;;;;;;;;;5049160;28;20048;-68
2023/10/22 13:49:06;;;;;;;20.80;7.57;;;;;;;;;;5061102;28;20597;-69
2023/10/22 13:51:34;;;;;;;16.20;6.60;;;;;;;;;;5050457;28;20064;-68
2023/10/22 13:54:01;;;;;;;18.05;7.20;;;;;;;;;;5053510;28;20056;-68
2023/10/22 13:56:29;;;;;;;16.27;6.55;;;;;;;;;;5053021;28;20045;-68
2023/10/22 13:58:56;;;;;;;12.88;5.90;;;;;;;;;;5066758;28;20143;-68
2023/10/22 14:01:24;;;;;;;16.95;8.73;;;;;;;;;;5066265;28;20106;-68
2023/10/22 14:03:52;;;;;;;27.40;12.75;;;;;;;;;;5051004;28;20052;-68
2023/10/22 14:06:24;;;;;;;35.47;23.05;;;;;;;;;;5070245;28;20121;-68
2023/10/22 14:08:52;;;;;;;21.40;8.00;;;;;;;;;;5070799;28;20040;-67
2023/10/22 14:11:21;;;;;;;16.45;7.60;;;;;;;;;;5070494;28;20043;-67
2023/10/22 14:13:53;;;;;;;16.90;6.30;;;;;;;;;;5071856;28;20062;-68
2023/10/22 14:16:21;;;;;;;16.92;5.78;;;;;;;;;;5053892;28;20044;-67
2023/10/22 14:18:48;;;;;;;20.13;7.13;;;;;;;;;;5070958;28;20036;-68
2023/10/22 14:21:18;;;;;;;17.55;6.25;;;;;;;;;;5072193;28;20592;-67
2023/10/22 14:23:46;;;;;;;20.25;5.78;;;;;;;;;;5091605;28;20089;-74
2023/10/22 14:26:14;;;;;;;15.20;5.80;;;;;;;;;;5086008;28;20044;-68
2023/10/22 14:28:42;;;;;;;18.33;6.72;;;;;;;;;;5076136;28;20050;-68
2023/10/22 14:31:10;;;;;;;19.38;8.55;;;;;;;;;;5087766;28;20040;-69
2023/10/22 14:33:38;;;;;;;19.55;10.52;;;;;;;;;;5058327;28;20064;-67
2023/10/22 14:36:06;;;;;;;20.40;9.25;;;;;;;;;;5077630;28;20048;-67